Time;durP1;ratioP1;P1;durP2;ratioP2;P2;SDS_P1;SDS_P2;PMS_P1;PMS_P2;Temp;Humidity;BMP_temperature;BMP_pressure;BME280_temperature;BME280_humidity;BME280_pressure;Samples;Min_cycle;Max_cycle;Signal;HPM_P1;HPM_P2
2023/07/23 00:01:58;;;;;;;;;;;29.70;52.70;;;;;;4993910;28;88858;-53
2023/07/23 00:04:23;;;;;;;;;;;29.70;52.50;;;;;;4990541;28;88197;-55
2023/07/23 00:06:49;;;;;;;;;;;29.70;52.60;;;;;;4996470;28;87349;-59
2023/07/23 00:09:14;;;;;;;;;;;29.60;52.60;;;;;;4989389;28;87920;-52
2023/07/23 00:11:40;;;;;;;;;;;29.60;52.80;;;;;;4991830;28;87084;-56
2023/07/23 00:14:05;;;;;;;;;;;29.60;52.70;;;;;;4992931;28;87579;-55
2023/07/23 00:16:31;;;;;;;;;;;29.60;52.60;;;;;;4989887;28;87703;-55
2023/07/23 00:18:56;;;;;;;;;;;29.60;52.60;;;;;;4992572;28;86984;-57
2023/07/23 00:21:22;;;;;;;;;;;29.60;52.60;;;;;;4990609;28;87960;-56
2023/07/23 00:23:47;;;;;;;;;;;29.50;52.60;;;;;;4992052;28;88145;-53
2023/07/23 00:26:13;;;;;;;;;;;29.50;52.70;;;;;;4991186;28;87215;-58
2023/07/23 00:28:38;;;;;;;;;;;29.50;52.60;;;;;;4996071;28;87442;-53
2023/07/23 00:31:04;;;;;;;;;;;29.50;52.60;;;;;;4984194;28;87128;-59
2023/07/23 00:33:30;;;;;;;;;;;29.50;52.60;;;;;;4994403;28;88100;-56
2023/07/23 00:35:55;;;;;;;;;;;29.50;52.60;;;;;;4990226;28;88216;-54
2023/07/23 00:38:21;;;;;;;;;;;29.50;52.60;;;;;;4993219;28;86295;-55
2023/07/23 00:40:46;;;;;;;;;;;29.40;52.50;;;;;;4990878;28;86987;-57
2023/07/23 00:43:12;;;;;;;;;;;29.40;52.50;;;;;;4991995;28;88191;-59
2023/07/23 00:45:38;;;;;;;;;;;29.40;52.60;;;;;;4990052;28;88047;-58
2023/07/23 00:48:04;;;;;;;;;;;29.40;52.60;;;;;;4992549;28;88412;-59
2023/07/23 00:50:30;;;;;;;;;;;29.30;52.50;;;;;;4994654;28;88114;-58
2023/07/23 00:52:56;;;;;;;;;;;29.40;52.60;;;;;;4989888;28;87160;-57
2023/07/23 00:55:21;;;;;;;;;;;29.30;52.50;;;;;;4993133;28;87873;-55
2023/07/23 00:57:47;;;;;;;;;;;29.30;52.60;;;;;;4990579;28;87009;-55
2023/07/23 01:00:12;;;;;;;;;;;29.30;52.40;;;;;;4990163;28;87141;-50
2023/07/23 01:02:38;;;;;;;;;;;29.30;52.60;;;;;;4993711;28;87054;-57
2023/07/23 01:05:04;;;;;;;;;;;29.30;52.70;;;;;;4990251;28;87136;-59
2023/07/23 01:07:29;;;;;;;;;;;29.20;52.50;;;;;;4993000;28;87206;-58
2023/07/23 01:09:55;;;;;;;;;;;29.30;52.50;;;;;;4989104;28;88881;-58
2023/07/23 01:12:21;;;;;;;;;;;29.20;52.50;;;;;;4995227;28;87068;-59
2023/07/23 01:14:46;;;;;;;;;;;29.20;52.60;;;;;;4990655;28;87931;-58
2023/07/23 01:17:13;;;;;;;;;;;29.20;52.60;;;;;;4988927;28;87091;-58
2023/07/23 01:19:39;;;;;;;;;;;29.20;52.60;;;;;;4990967;28;86988;-58
2023/07/23 01:22:05;;;;;;;;;;;29.10;52.50;;;;;;4972461;28;88268;-57
2023/07/23 01:24:30;;;;;;;;;;;29.10;52.50;;;;;;4969074;28;87153;-56
2023/07/23 01:26:56;;;;;;;;;;;29.10;52.60;;;;;;4970784;28;87388;-55
2023/07/23 01:29:21;;;;;;;;;;;29.10;52.60;;;;;;4972672;28;88192;-53
2023/07/23 01:31:47;;;;;;;;;;;29.00;52.60;;;;;;4969476;28;87380;-56
2023/07/23 01:34:13;;;;;;;;;;;29.00;52.60;;;;;;4975427;28;88048;-59
2023/07/23 01:36:39;;;;;;;;;;;29.00;52.50;;;;;;4970464;28;87448;-54
2023/07/23 01:39:04;;;;;;;;;;;29.00;52.50;;;;;;4968181;28;87626;-53
2023/07/23 01:41:30;;;;;;;;;;;29.00;52.60;;;;;;4967211;28;87579;-54
2023/07/23 01:43:55;;;;;;;;;;;29.00;52.60;;;;;;4971585;28;87311;-54
2023/07/23 01:46:21;;;;;;;;;;;28.90;52.50;;;;;;4970382;28;87423;-54
2023/07/23 01:48:46;;;;;;;;;;;28.90;52.40;;;;;;4971007;28;88116;-56
2023/07/23 01:51:12;;;;;;;;;;;28.90;52.60;;;;;;4972108;28;86297;-59
2023/07/23 01:53:37;;;;;;;;;;;28.90;52.50;;;;;;4975340;28;87892;-55
2023/07/23 01:56:03;;;;;;;;;;;28.80;52.40;;;;;;4974065;28;87120;-56
2023/07/23 01:58:29;;;;;;;;;;;28.80;52.40;;;;;;4975645;28;88410;-55
2023/07/23 02:00:58;;;;;;;;;;;28.80;52.50;;;;;;4972891;28;88144;-55
2023/07/23 02:03:23;;;;;;;;;;;28.80;52.40;;;;;;4970194;28;87113;-57
2023/07/23 02:05:59;;;;;;;;;;;28.80;52.50;;;;;;4976043;28;87581;-59
2023/07/23 02:08:24;;;;;;;;;;;28.80;52.40;;;;;;4972338;28;88285;-54
2023/07/23 02:10:50;;;;;;;;;;;28.80;52.30;;;;;;5006902;28;87262;-58
2023/07/23 02:13:15;;;;;;;;;;;28.80;52.40;;;;;;4973530;28;87533;-58
2023/07/23 02:15:41;;;;;;;;;;;28.70;52.30;;;;;;4979199;28;87380;-55
2023/07/23 02:18:06;;;;;;;;;;;28.70;52.30;;;;;;4972161;28;87093;-54
2023/07/23 02:20:32;;;;;;;;;;;28.70;52.30;;;;;;4982789;28;88317;-53
2023/07/23 02:22:57;;;;;;;;;;;28.70;52.30;;;;;;4991839;28;88060;-55
2023/07/23 02:25:23;;;;;;;;;;;28.70;52.30;;;;;;4990541;28;88527;-59
2023/07/23 02:27:48;;;;;;;;;;;28.60;52.20;;;;;;4992678;28;88033;-57
2023/07/23 02:30:14;;;;;;;;;;;28.70;52.30;;;;;;4994901;28;87202;-55
2023/07/23 02:35:23;;;;;;;;;;;28.60;52.30;;;;;;4988951;28;87344;-57
2023/07/23 02:37:49;;;;;;;;;;;28.60;52.30;;;;;;4998335;28;87077;-56
2023/07/23 02:40:14;;;;;;;;;;;28.60;52.40;;;;;;4992325;28;87484;-57
2023/07/23 02:42:40;;;;;;;;;;;28.50;52.30;;;;;;4993267;28;87032;-58
2023/07/23 02:45:06;;;;;;;;;;;28.60;52.30;;;;;;4994194;28;87561;-55
2023/07/23 02:47:31;;;;;;;;;;;28.50;52.30;;;;;;4988937;28;89126;-58
2023/07/23 02:49:57;;;;;;;;;;;28.50;52.30;;;;;;4993940;28;87094;-59
2023/07/23 02:52:23;;;;;;;;;;;28.50;52.40;;;;;;4992905;28;89074;-57
2023/07/23 02:54:49;;;;;;;;;;;28.50;52.30;;;;;;4990848;28;88203;-59
2023/07/23 02:57:15;;;;;;;;;;;28.40;52.30;;;;;;4994934;28;87037;-56
2023/07/23 02:59:40;;;;;;;;;;;28.40;52.30;;;;;;4994669;28;87346;-59
2023/07/23 03:02:06;;;;;;;;;;;28.40;52.30;;;;;;4992318;28;87087;-59
2023/07/23 03:04:31;;;;;;;;;;;28.40;52.30;;;;;;4995959;28;87442;-59
2023/07/23 03:06:56;;;;;;;;;;;28.40;52.30;;;;;;4991868;28;88282;-58
2023/07/23 03:09:22;;;;;;;;;;;28.30;52.30;;;;;;4990994;28;87092;-56
2023/07/23 03:11:48;;;;;;;;;;;28.30;52.20;;;;;;4993808;28;87998;-58
2023/07/23 03:14:13;;;;;;;;;;;28.30;52.30;;;;;;4992800;28;87460;-58
2023/07/23 03:16:39;;;;;;;;;;;28.30;52.30;;;;;;4993812;28;87710;-56
2023/07/23 03:19:04;;;;;;;;;;;28.30;52.20;;;;;;4989743;28;87441;-56
2023/07/23 03:21:30;;;;;;;;;;;28.30;52.20;;;;;;4991775;28;87951;-55
2023/07/23 03:23:55;;;;;;;;;;;28.30;52.30;;;;;;4984062;28;87552;-53
2023/07/23 03:26:21;;;;;;;;;;;28.20;52.30;;;;;;4979782;28;88118;-57
2023/07/23 03:28:46;;;;;;;;;;;28.20;52.30;;;;;;4992263;28;86393;-57
2023/07/23 03:31:12;;;;;;;;;;;28.20;52.30;;;;;;4990094;28;88393;-57
2023/07/23 03:33:37;;;;;;;;;;;28.20;52.30;;;;;;4983144;28;88313;-58
2023/07/23 03:36:03;;;;;;;;;;;28.20;52.30;;;;;;4984945;28;88042;-55
2023/07/23 03:38:29;;;;;;;;;;;28.10;52.30;;;;;;4993843;28;89838;-55
2023/07/23 03:40:55;;;;;;;;;;;28.10;52.40;;;;;;4978523;28;88269;-57
2023/07/23 03:43:20;;;;;;;;;;;28.10;52.20;;;;;;4990977;28;87017;-52
2023/07/23 03:45:46;;;;;;;;;;;28.10;52.20;;;;;;4985278;28;88906;-57
2023/07/23 03:48:11;;;;;;;;;;;28.10;52.30;;;;;;4992426;28;87055;-55
2023/07/23 03:50:37;;;;;;;;;;;28.00;52.20;;;;;;4990271;28;87424;-55
2023/07/23 03:53:02;;;;;;;;;;;28.00;52.20;;;;;;4988294;28;87310;-55
2023/07/23 03:55:28;;;;;;;;;;;28.00;52.20;;;;;;4977568;28;87055;-56
2023/07/23 03:57:54;;;;;;;;;;;28.00;52.20;;;;;;4993755;28;87545;-53
2023/07/23 04:00:19;;;;;;;;;;;28.00;52.40;;;;;;4989243;28;89035;-56
2023/07/23 04:02:45;;;;;;;;;;;27.90;52.30;;;;;;4987206;28;87204;-58
2023/07/23 04:05:10;;;;;;;;;;;27.90;52.30;;;;;;4990529;28;86956;-56
2023/07/23 04:07:36;;;;;;;;;;;27.90;52.30;;;;;;4990915;28;87135;-58
2023/07/23 04:10:03;;;;;;;;;;;27.90;52.20;;;;;;4983640;28;89205;-54
2023/07/23 04:12:29;;;;;;;;;;;27.90;52.30;;;;;;4983930;28;89325;-58
2023/07/23 04:14:54;;;;;;;;;;;27.80;52.40;;;;;;4991589;28;87547;-54
2023/07/23 04:17:20;;;;;;;;;;;27.80;52.30;;;;;;4990981;28;88601;-55
2023/07/23 04:19:45;;;;;;;;;;;27.80;52.40;;;;;;4982844;28;88042;-57
2023/07/23 04:22:11;;;;;;;;;;;27.80;52.40;;;;;;4983072;28;87058;-55
2023/07/23 04:24:36;;;;;;;;;;;27.80;52.30;;;;;;4992968;28;88371;-58
2023/07/23 04:27:02;;;;;;;;;;;27.80;52.40;;;;;;4990401;28;87109;-57
2023/07/23 04:29:27;;;;;;;;;;;27.80;52.30;;;;;;4976884;28;88277;-57
2023/07/23 04:31:53;;;;;;;;;;;27.80;52.40;;;;;;4984173;28;88118;-56
2023/07/23 04:34:18;;;;;;;;;;;27.70;52.40;;;;;;4994402;28;87194;-54
2023/07/23 04:36:44;;;;;;;;;;;27.80;52.40;;;;;;4986849;28;88307;-57
2023/07/23 04:39:09;;;;;;;;;;;27.70;52.40;;;;;;4979854;28;88088;-55
2023/07/23 04:41:35;;;;;;;;;;;27.70;52.50;;;;;;4984490;28;86548;-57
2023/07/23 04:44:00;;;;;;;;;;;27.70;52.40;;;;;;4993200;28;88467;-57
2023/07/23 04:46:26;;;;;;;;;;;27.70;52.40;;;;;;4989185;28;87185;-57
2023/07/23 04:48:52;;;;;;;;;;;27.70;52.60;;;;;;4983663;28;88142;-57
2023/07/23 04:51:17;;;;;;;;;;;27.70;52.60;;;;;;4991104;28;87075;-57
2023/07/23 04:53:43;;;;;;;;;;;27.70;52.60;;;;;;4992770;28;87108;-56
2023/07/23 04:56:08;;;;;;;;;;;27.60;52.50;;;;;;4985289;28;87545;-53
2023/07/23 04:58:34;;;;;;;;;;;27.60;52.50;;;;;;4982329;28;88236;-55
2023/07/23 05:01:05;;;;;;;;;;;27.60;52.60;;;;;;4990201;28;87291;-55
2023/07/23 05:03:30;;;;;;;;;;;27.60;52.50;;;;;;4985807;28;87590;-55
2023/07/23 05:06:00;;;;;;;;;;;27.60;53.20;;;;;;4991130;28;86664;-55
2023/07/23 05:08:26;;;;;;;;;;;27.60;52.60;;;;;;4984505;28;87137;-56
2023/07/23 05:10:57;;;;;;;;;;;27.60;52.60;;;;;;4989988;28;88197;-59
2023/07/23 05:13:22;;;;;;;;;;;27.60;52.60;;;;;;4987002;28;88303;-57
2023/07/23 05:15:48;;;;;;;;;;;27.60;52.70;;;;;;4977301;28;88576;-57
2023/07/23 05:18:13;;;;;;;;;;;27.60;52.80;;;;;;4984120;28;88022;-57
2023/07/23 05:20:39;;;;;;;;;;;27.60;52.70;;;;;;4993144;28;87189;-56
2023/07/23 05:23:04;;;;;;;;;;;27.60;52.80;;;;;;4984273;28;87798;-59
2023/07/23 05:25:30;;;;;;;;;;;27.60;52.80;;;;;;4990206;28;87922;-59
2023/07/23 05:27:56;;;;;;;;;;;27.60;52.90;;;;;;4983620;28;87082;-58
2023/07/23 05:30:21;;;;;;;;;;;27.50;52.90;;;;;;4997403;28;88051;-58
2023/07/23 05:32:47;;;;;;;;;;;27.60;52.90;;;;;;4988615;28;87707;-52
2023/07/23 05:35:12;;;;;;;;;;;27.60;52.90;;;;;;4983872;28;88233;-59
2023/07/23 05:37:38;;;;;;;;;;;27.60;53.00;;;;;;4990753;28;89068;-56
2023/07/23 05:40:04;;;;;;;;;;;27.60;53.10;;;;;;4994522;28;87098;-55
2023/07/23 05:42:29;;;;;;;;;;;27.60;53.10;;;;;;4987910;28;87124;-54
2023/07/23 05:44:55;;;;;;;;;;;27.50;53.00;;;;;;4987326;28;88142;-59
2023/07/23 05:47:20;;;;;;;;;;;27.60;53.10;;;;;;4993311;28;87513;-58
2023/07/23 05:49:46;;;;;;;;;;;27.60;53.20;;;;;;4998950;28;87052;-54
2023/07/23 05:52:11;;;;;;;;;;;27.60;53.30;;;;;;4977938;28;88249;-57
2023/07/23 05:54:37;;;;;;;;;;;27.50;53.30;;;;;;4987083;28;88775;-59
2023/07/23 05:57:03;;;;;;;;;;;27.60;53.30;;;;;;4993032;28;87151;-59
2023/07/23 05:59:28;;;;;;;;;;;27.60;53.30;;;;;;4993263;28;87138;-57
2023/07/23 06:01:54;;;;;;;;;;;27.50;53.30;;;;;;4990721;28;88160;-59
2023/07/23 06:04:20;;;;;;;;;;;27.50;53.50;;;;;;4989940;28;88054;-57
2023/07/23 06:06:46;;;;;;;;;;;27.50;53.50;;;;;;4994494;28;87219;-56
2023/07/23 06:09:12;;;;;;;;;;;27.50;53.60;;;;;;4992885;28;87664;-53
2023/07/23 06:11:37;;;;;;;;;;;27.50;53.50;;;;;;4996008;28;89449;-57
2023/07/23 06:14:03;;;;;;;;;;;27.50;53.50;;;;;;4987658;28;88816;-56
2023/07/23 06:16:31;;;;;;;;;;;27.60;53.60;;;;;;4995194;28;88485;-55
2023/07/23 06:18:57;;;;;;;;;;;27.50;53.50;;;;;;4990283;28;86494;-56
2023/07/23 06:21:23;;;;;;;;;;;27.50;53.70;;;;;;4979091;28;87185;-55
2023/07/23 06:23:48;;;;;;;;;;;27.50;53.70;;;;;;4988200;28;88111;-55
2023/07/23 06:26:14;;;;;;;;;;;27.50;53.60;;;;;;4991205;28;88218;-51
2023/07/23 06:28:39;;;;;;;;;;;27.50;53.70;;;;;;4990022;28;88344;-55
2023/07/23 06:31:05;;;;;;;;;;;27.50;53.70;;;;;;4982935;28;91367;-55
2023/07/23 06:33:30;;;;;;;;;;;27.50;53.70;;;;;;4991901;28;87571;-55
2023/07/23 06:35:56;;;;;;;;;;;27.50;53.60;;;;;;4993170;28;88135;-56
2023/07/23 06:38:21;;;;;;;;;;;27.50;53.70;;;;;;4988986;28;87789;-57
2023/07/23 06:40:48;;;;;;;;;;;27.50;53.70;;;;;;4979563;28;87667;-55
2023/07/23 06:43:13;;;;;;;;;;;27.50;53.70;;;;;;4991065;28;87604;-56
2023/07/23 06:45:39;;;;;;;;;;;27.50;53.80;;;;;;4992100;28;87388;-56
2023/07/23 06:48:05;;;;;;;;;;;27.50;53.80;;;;;;4984377;28;88791;-56
2023/07/23 06:50:31;;;;;;;;;;;27.50;53.90;;;;;;4980374;28;88956;-56
2023/07/23 06:52:57;;;;;;;;;;;27.50;53.80;;;;;;4991574;28;87013;-55
2023/07/23 06:55:22;;;;;;;;;;;27.50;53.80;;;;;;4994209;28;87743;-55
2023/07/23 06:57:48;;;;;;;;;;;27.50;53.80;;;;;;4988723;28;88875;-58
2023/07/23 07:00:14;;;;;;;;;;;27.50;53.90;;;;;;4987167;28;88944;-53
2023/07/23 07:02:40;;;;;;;;;;;27.50;53.90;;;;;;4992245;28;88180;-57
2023/07/23 07:05:05;;;;;;;;;;;27.50;53.90;;;;;;4989448;28;87098;-56
2023/07/23 07:07:31;;;;;;;;;;;27.50;53.90;;;;;;4985058;28;87390;-56
2023/07/23 07:09:56;;;;;;;;;;;27.50;53.90;;;;;;4981514;28;88276;-55
2023/07/23 07:12:23;;;;;;;;;;;27.50;53.90;;;;;;4993029;28;87129;-55
2023/07/23 07:14:49;;;;;;;;;;;27.50;54.00;;;;;;4990201;28;88046;-57
2023/07/23 07:17:14;;;;;;;;;;;27.50;54.00;;;;;;4989065;28;88251;-55
2023/07/23 07:19:42;;;;;;;;;;;27.50;54.00;;;;;;4979073;28;1669426;-58
2023/07/23 07:22:07;;;;;;;;;;;27.50;54.00;;;;;;4992209;28;87031;-54
2023/07/23 07:24:33;;;;;;;;;;;27.50;54.30;;;;;;4990850;28;87476;-58
2023/07/23 07:26:58;;;;;;;;;;;27.50;54.00;;;;;;4979639;28;88852;-56
2023/07/23 07:29:24;;;;;;;;;;;27.50;54.00;;;;;;4984352;28;87068;-57
2023/07/23 07:31:50;;;;;;;;;;;27.50;54.00;;;;;;4993877;28;86457;-58
2023/07/23 07:34:16;;;;;;;;;;;27.50;54.00;;;;;;4990990;28;88960;-54
2023/07/23 07:36:41;;;;;;;;;;;27.50;54.00;;;;;;4982148;28;87335;-57
2023/07/23 07:39:07;;;;;;;;;;;27.50;54.00;;;;;;4991696;28;90908;-58
2023/07/23 07:41:32;;;;;;;;;;;27.50;54.30;;;;;;4993762;28;88701;-55
2023/07/23 07:43:58;;;;;;;;;;;27.60;54.10;;;;;;4984203;28;89051;-57
2023/07/23 07:46:23;;;;;;;;;;;27.50;54.00;;;;;;4982481;28;87366;-57
2023/07/23 07:48:49;;;;;;;;;;;27.50;54.00;;;;;;4988154;28;87491;-54
2023/07/23 07:51:14;;;;;;;;;;;27.60;54.10;;;;;;4993646;28;88266;-56
2023/07/23 07:53:40;;;;;;;;;;;27.50;54.00;;;;;;4988089;28;87883;-55
2023/07/23 07:56:08;;;;;;;;;;;27.50;54.00;;;;;;4984421;28;89142;-54
2023/07/23 07:58:33;;;;;;;;;;;27.50;54.00;;;;;;4992543;28;89644;-52
2023/07/23 08:01:00;;;;;;;;;;;27.50;54.00;;;;;;4991927;28;90488;-58
2023/07/23 08:03:26;;;;;;;;;;;27.50;54.00;;;;;;4983329;28;88529;-56
2023/07/23 08:05:52;;;;;;;;;;;27.50;54.00;;;;;;4981142;28;87736;-56
2023/07/23 08:08:23;;;;;;;;;;;27.50;54.10;;;;;;4993757;28;87818;-55
2023/07/23 08:10:49;;;;;;;;;;;27.50;54.10;;;;;;4987208;28;88111;-59
2023/07/23 08:13:15;;;;;;;;;;;27.50;54.10;;;;;;4988245;28;87083;-56
2023/07/23 08:15:40;;;;;;;;;;;27.50;54.00;;;;;;4983556;28;90804;-57
2023/07/23 08:18:06;;;;;;;;;;;27.50;54.70;;;;;;4992939;28;88063;-56
2023/07/23 08:20:34;;;;;;;;;;;27.50;54.10;;;;;;4990690;28;87107;-56
2023/07/23 08:23:00;;;;;;;;;;;27.50;54.00;;;;;;4984307;28;89617;-55
2023/07/23 08:25:28;;;;;;;;;;;27.50;54.00;;;;;;4989076;28;87106;-55
2023/07/23 08:27:59;;;;;;;;;;;27.50;54.10;;;;;;4991488;28;89651;-44
2023/07/23 08:30:26;;;;;;;;;;;27.50;54.00;;;;;;4979200;28;89071;-46
2023/07/23 08:32:53;;;;;;;;;;;27.60;52.50;;;;;;4988812;28;87261;-44
2023/07/23 08:35:19;;;;;;;;;;;27.50;52.20;;;;;;4990399;28;87737;-47
2023/07/23 08:37:44;;;;;;;;;;;27.70;51.80;;;;;;4991711;28;88185;-54
2023/07/23 08:40:10;;;;;;;;;;;27.70;52.50;;;;;;4987945;28;87212;-48
2023/07/23 08:42:48;;;;;;;;;;;27.70;54.00;;;;;;4982335;28;88248;-46
2023/07/23 08:45:32;;;;;;;;;;;27.80;52.20;;;;;;4987654;28;86328;-52
2023/07/23 08:48:16;;;;;;;;;;;27.90;51.60;;;;;;4984359;28;87152;-47
2023/07/23 08:51:00;;;;;;;;;;;27.90;52.60;;;;;;4981966;28;87825;-47
2023/07/23 08:53:25;;;;;;;;;;;28.00;51.70;;;;;;4982982;28;87998;-49
2023/07/23 08:55:51;;;;;;;;;;;28.00;51.90;;;;;;4992871;28;88425;-54
2023/07/23 08:58:18;;;;;;;;;;;28.00;52.10;;;;;;4980915;28;87798;-57
2023/07/23 09:00:44;;;;;;;;;;;27.90;50.50;;;;;;4985861;28;87786;-50
2023/07/23 09:03:10;;;;;;;;;;;27.90;50.30;;;;;;4986109;28;87788;-56
2023/07/23 09:05:36;;;;;;;;;;;28.00;50.00;;;;;;4990169;28;88210;-51
2023/07/23 09:08:02;;;;;;;;;;;28.00;49.70;;;;;;4983785;28;87468;-45
2023/07/23 09:10:28;;;;;;;;;;;28.00;50.50;;;;;;4983507;28;87691;-44
2023/07/23 09:12:53;;;;;;;;;;;28.00;50.60;;;;;;4990171;28;88957;-46
2023/07/23 09:15:19;;;;;;;;;;;28.00;51.10;;;;;;4980067;28;87155;-51
2023/07/23 09:17:48;;;;;;;;;;;28.00;49.60;;;;;;4981842;28;89001;-46
2023/07/23 09:20:16;;;;;;;;;;;28.00;48.80;;;;;;4989736;28;87163;-45
2023/07/23 09:22:41;;;;;;;;;;;28.00;49.00;;;;;;4991127;28;87414;-58
2023/07/23 09:25:07;;;;;;;;;;;28.10;48.40;;;;;;4983355;28;89902;-52
2023/07/23 09:27:51;;;;;;;;;;;28.00;48.90;;;;;;4983054;28;87430;-47
2023/07/23 09:30:18;;;;;;;;;;;28.00;47.20;;;;;;4981807;28;89768;-46
2023/07/23 09:32:44;;;;;;;;;;;28.10;48.70;;;;;;4979181;28;87318;-48
2023/07/23 09:35:09;;;;;;;;;;;28.10;48.30;;;;;;4991942;28;87848;-47
2023/07/23 09:37:35;;;;;;;;;;;28.10;46.70;;;;;;4989542;28;88052;-42
2023/07/23 09:40:01;;;;;;;;;;;28.10;46.40;;;;;;4980510;28;87267;-44
2023/07/23 09:42:26;;;;;;;;;;;28.10;46.90;;;;;;4984149;28;88774;-46
2023/07/23 09:44:52;;;;;;;;;;;28.10;47.40;;;;;;4992696;28;88045;-48
2023/07/23 09:47:24;;;;;;;;;;;28.10;47.70;;;;;;4980518;28;88707;-55
2023/07/23 09:49:53;;;;;;;;;;;28.10;47.80;;;;;;4973601;28;87963;-48
2023/07/23 09:52:21;;;;;;;;;;;28.10;45.30;;;;;;4985039;28;87206;-52
2023/07/23 09:54:47;;;;;;;;;;;28.10;44.80;;;;;;4986185;28;87413;-47
2023/07/23 09:57:13;;;;;;;;;;;28.10;45.40;;;;;;4982077;28;87900;-54
2023/07/23 09:59:39;;;;;;;;;;;28.20;45.30;;;;;;4984627;28;86643;-51
2023/07/23 10:02:06;;;;;;;;;;;28.10;43.70;;;;;;4992997;28;87015;-54
2023/07/23 10:04:32;;;;;;;;;;;28.20;44.80;;;;;;4980826;28;88320;-54
2023/07/23 10:06:58;;;;;;;;;;;28.20;45.20;;;;;;4977858;28;89047;-49
2023/07/23 10:09:24;;;;;;;;;;;28.20;44.00;;;;;;4986131;28;88578;-48
2023/07/23 10:11:49;;;;;;;;;;;28.20;44.20;;;;;;4990426;28;87115;-46
2023/07/23 10:14:15;;;;;;;;;;;28.30;46.30;;;;;;4985000;28;88027;-46
2023/07/23 10:16:42;;;;;;;;;;;28.20;45.60;;;;;;4988120;28;88099;-51
2023/07/23 10:19:09;;;;;;;;;;;28.30;45.60;;;;;;4987500;28;88723;-47
2023/07/23 10:21:35;;;;;;;;;;;28.20;46.00;;;;;;4989468;28;88959;-52
2023/07/23 10:24:01;;;;;;;;;;;28.30;46.40;;;;;;4986786;28;87337;-58
2023/07/23 10:26:27;;;;;;;;;;;28.30;46.60;;;;;;4991615;28;88144;-52
2023/07/23 10:28:56;;;;;;;;;;;28.40;44.10;;;;;;4987402;28;87232;-54
2023/07/23 10:31:23;;;;;;;;;;;28.40;45.60;;;;;;4983750;28;90241;-53
2023/07/23 10:33:51;;;;;;;;;;;28.40;45.60;;;;;;4991155;28;89699;-54
2023/07/23 10:36:22;;;;;;;;;;;28.40;44.30;;;;;;4993199;28;89634;-47
2023/07/23 10:39:01;;;;;;;;;;;28.40;44.00;;;;;;4992851;28;86995;-59
2023/07/23 10:41:45;;;;;;;;;;;28.30;44.60;;;;;;4990212;28;87203;-49
2023/07/23 10:44:19;;;;;;;;;;;28.40;44.00;;;;;;4990627;28;88192;-48
2023/07/23 10:46:45;;;;;;;;;;;28.40;44.30;;;;;;4995421;28;87096;-45
2023/07/23 10:49:18;;;;;;;;;;;28.50;44.30;;;;;;4992681;28;87489;-53
2023/07/23 10:51:43;;;;;;;;;;;28.50;44.40;;;;;;4987754;28;88580;-50
2023/07/23 10:54:09;;;;;;;;;;;28.50;44.20;;;;;;4996410;28;87942;-60
2023/07/23 10:56:35;;;;;;;;;;;28.50;45.40;;;;;;4979477;28;89013;-52
2023/07/23 11:25:16;;;;;;;;;;;28.20;44.10;;;;;;5049356;27;82080;-46
2023/07/23 11:27:42;;;;;;;;;;;28.20;44.70;;;;;;5044800;27;82116;-46
2023/07/23 11:30:12;;;;;;;;;;;28.20;44.40;;;;;;5053445;27;80720;-47
2023/07/23 11:32:37;;;;;;;;;;;28.30;45.00;;;;;;5044553;27;81083;-59
2023/07/23 11:35:03;;;;;;;;;;;28.40;45.30;;;;;;5047038;27;81757;-50
2023/07/23 11:37:28;;;;;;;;;;;28.50;45.20;;;;;;5047499;27;80531;-48
2023/07/23 11:39:55;;;;;;;;;;;28.50;43.50;;;;;;5050842;27;81370;-56
2023/07/23 11:42:21;;;;;;;;;;;28.60;43.80;;;;;;5039746;27;80445;-44
2023/07/23 11:45:02;;;;;;;;;;;28.60;44.40;;;;;;5044562;27;80862;-45
2023/07/23 11:47:28;;;;;;;;;;;28.60;43.60;;;;;;5045732;27;80192;-44
2023/07/23 11:49:53;;;;;;;;;;;28.70;43.50;;;;;;5053059;27;80291;-46
2023/07/23 11:52:23;;;;;;;;;;;28.80;42.80;;;;;;5041005;27;81346;-46
2023/07/23 11:54:48;;;;;;;;;;;28.80;42.90;;;;;;5044887;27;80323;-52
2023/07/23 11:57:14;;;;;;;;;;;28.80;42.60;;;;;;5050624;27;82255;-51
2023/07/23 11:59:39;;;;;;;;;;;28.70;41.30;;;;;;5052873;27;81316;-56
2023/07/23 12:02:05;;;;;;;;;;;28.80;43.00;;;;;;5053458;27;80475;-47
2023/07/23 12:04:36;;;;;;;;;;;28.90;42.60;;;;;;5041354;27;83043;-58
2023/07/23 12:07:02;;;;;;;;;;;29.00;42.90;;;;;;5049836;27;82739;-46
2023/07/23 12:09:28;;;;;;;;;;;29.00;42.90;;;;;;5051603;27;80764;-45
2023/07/23 12:11:54;;;;;;;;;;;29.00;42.60;;;;;;5045965;27;80909;-56
2023/07/23 12:14:19;;;;;;;;;;;28.90;42.50;;;;;;5044655;27;80499;-56
2023/07/23 12:16:46;;;;;;;;;;;28.90;41.80;;;;;;5050583;27;80840;-51
2023/07/23 12:19:13;;;;;;;;;;;28.90;42.40;;;;;;5052581;27;81788;-58
2023/07/23 12:21:39;;;;;;;;;;;28.90;41.30;;;;;;5041970;27;80520;-55
2023/07/23 12:24:11;;;;;;;;;;;28.90;40.60;;;;;;5044966;27;81082;-56
2023/07/23 12:26:36;;;;;;;;;;;28.90;39.70;;;;;;5049578;27;84062;-47
2023/07/23 12:29:03;;;;;;;;;;;29.00;41.10;;;;;;5050034;27;80809;-47
2023/07/23 12:31:28;;;;;;;;;;;29.00;39.20;;;;;;5042183;27;81241;-48
2023/07/23 12:33:54;;;;;;;;;;;29.10;40.00;;;;;;5045284;27;80367;-55
2023/07/23 12:36:19;;;;;;;;;;;29.10;39.20;;;;;;5041087;27;80741;-48
2023/07/23 12:38:45;;;;;;;;;;;29.10;41.30;;;;;;5032986;28;82105;-51
2023/07/23 12:41:10;;;;;;;;;;;29.20;40.40;;;;;;5031874;28;81424;-56
2023/07/23 12:43:38;;;;;;;;;;;29.20;40.00;;;;;;5034155;28;80913;-50
2023/07/23 12:46:04;;;;;;;;;;;29.10;39.50;;;;;;5038016;28;81499;-56
2023/07/23 12:48:30;;;;;;;;;;;29.10;40.20;;;;;;5033855;28;81076;-52
2023/07/23 12:50:55;;;;;;;;;;;29.20;40.30;;;;;;5026320;28;81124;-53
2023/07/23 12:53:21;;;;;;;;;;;29.30;41.00;;;;;;5035468;28;80307;-51
2023/07/23 12:55:46;;;;;;;;;;;29.30;41.20;;;;;;5038644;28;80411;-56
2023/07/23 12:58:11;;;;;;;;;;;29.30;41.30;;;;;;5034282;28;81415;-57
2023/07/23 13:00:37;;;;;;;;;;;29.40;41.40;;;;;;5027613;28;80620;-47
2023/07/23 13:03:03;;;;;;;;;;;29.30;42.70;;;;;;5036712;28;81977;-50
2023/07/23 13:05:33;;;;;;;;;;;29.30;42.70;;;;;;5027587;28;82936;-47
2023/07/23 13:07:59;;;;;;;;;;;29.30;41.70;;;;;;5030343;28;80763;-51
2023/07/23 13:10:24;;;;;;;;;;;29.30;43.50;;;;;;5031476;28;80845;-54
2023/07/23 13:12:50;;;;;;;;;;;29.40;43.20;;;;;;5036842;28;81331;-55
2023/07/23 13:15:15;;;;;;;;;;;29.40;43.60;;;;;;5036737;28;80259;-62
2023/07/23 13:17:41;;;;;;;;;;;29.40;44.80;;;;;;5028559;28;81475;-51
2023/07/23 13:20:06;;;;;;;;;;;29.40;44.40;;;;;;5018284;28;81141;-53
2023/07/23 13:22:32;;;;;;;;;;;29.50;44.40;;;;;;5038608;28;80851;-51
2023/07/23 13:24:58;;;;;;;;;;;29.50;44.30;;;;;;5034238;28;82844;-49
2023/07/23 13:27:23;;;;;;;;;;;29.50;44.40;;;;;;5031632;28;80999;-51
2023/07/23 13:29:49;;;;;;;;;;;29.50;43.80;;;;;;5026769;28;80453;-49
2023/07/23 13:32:14;;;;;;;;;;;29.50;43.80;;;;;;5039501;28;81371;-64
2023/07/23 13:34:40;;;;;;;;;;;29.50;43.40;;;;;;5037884;28;80795;-48
2023/07/23 13:37:05;;;;;;;;;;;29.50;44.10;;;;;;5029842;28;81227;-56
2023/07/23 13:39:31;;;;;;;;;;;29.50;43.90;;;;;;5030437;28;80575;-54
2023/07/23 13:41:56;;;;;;;;;;;29.50;44.20;;;;;;5033813;28;82162;-54
2023/07/23 13:44:22;;;;;;;;;;;29.50;44.20;;;;;;5032569;28;81983;-54
2023/07/23 13:46:47;;;;;;;;;;;29.50;44.30;;;;;;5033527;27;80886;-55
2023/07/23 13:49:13;;;;;;;;;;;29.50;44.50;;;;;;5029810;28;80825;-54
2023/07/23 13:51:38;;;;;;;;;;;29.50;44.50;;;;;;5036071;28;80552;-56
2023/07/23 13:54:04;;;;;;;;;;;29.50;44.50;;;;;;5032677;28;80462;-55
2023/07/23 13:56:29;;;;;;;;;;;29.50;44.70;;;;;;5024836;28;81427;-57
2023/07/23 13:58:55;;;;;;;;;;;29.50;44.80;;;;;;5027038;28;82219;-55
2023/07/23 14:01:20;;;;;;;;;;;29.60;45.10;;;;;;5029582;28;80887;-56
2023/07/23 14:03:46;;;;;;;;;;;29.60;44.90;;;;;;5025580;28;82167;-56
2023/07/23 14:06:11;;;;;;;;;;;29.60;44.90;;;;;;5027926;28;80759;-55
2023/07/23 14:08:37;;;;;;;;;;;29.60;44.90;;;;;;5033920;28;80647;-53
2023/07/23 14:11:02;;;;;;;;;;;29.60;45.10;;;;;;5036895;28;80461;-55
2023/07/23 14:13:28;;;;;;;;;;;29.60;45.00;;;;;;5032203;28;82108;-57
2023/07/23 14:15:53;;;;;;;;;;;29.70;45.30;;;;;;5030887;28;80861;-55
2023/07/23 14:18:19;;;;;;;;;;;29.70;45.30;;;;;;5035658;28;81001;-55
2023/07/23 14:20:44;;;;;;;;;;;29.70;45.30;;;;;;5035814;28;80343;-54
2023/07/23 14:23:10;;;;;;;;;;;29.70;45.40;;;;;;5028682;28;81284;-54
2023/07/23 14:25:35;;;;;;;;;;;29.70;45.40;;;;;;5035671;28;81580;-55
2023/07/23 14:28:01;;;;;;;;;;;29.70;45.20;;;;;;5033480;28;80297;-53
2023/07/23 14:30:26;;;;;;;;;;;29.80;45.40;;;;;;5035936;28;82790;-56
2023/07/23 14:32:52;;;;;;;;;;;29.70;45.40;;;;;;5031552;28;80550;-55
2023/07/23 14:35:17;;;;;;;;;;;29.70;45.50;;;;;;5030444;28;80558;-56
2023/07/23 14:37:44;;;;;;;;;;;29.70;45.70;;;;;;5038028;28;80971;-54
2023/07/23 14:40:10;;;;;;;;;;;29.70;45.80;;;;;;5036431;28;80259;-56